Time;durP1;ratioP1;P1;durP2;ratioP2;P2;SDS_P1;SDS_P2;PMS_P1;PMS_P2;Temp;Humidity;BMP_temperature;BMP_pressure;BME280_temperature;BME280_humidity;BME280_pressure;Samples;Min_cycle;Max_cycle;Signal;HPM_P1;HPM_P2
2019/09/29 00:01:23;;;;;;;4.8;2;;;;;;;;;;;;;
2019/09/29 00:03:39;;;;;;;4.2;2;;;;;;;;;;;;;
2019/09/29 00:06:09;;;;;;;7.6;2.2;;;;;;;;;;;;;
2019/09/29 00:08:34;;;;;;;4.4;2;;;;;;;;;;;;;
2019/09/29 00:11:03;;;;;;;5.3;1.9;;;;;;;;;;;;;
2019/09/29 00:13:29;;;;;;;7.9;2.1;;;;;;;;;;;;;
2019/09/29 00:15:51;;;;;;;8.4;2;;;;;;;;;;;;;
2019/09/29 00:18:17;;;;;;;5.1;2;;;;;;;;;;;;;
2019/09/29 00:20:47;;;;;;;6.5;2;;;;;;;;;;;;;
2019/09/29 00:23:11;;;;;;;4.1;2.1;;;;;;;;;;;;;
2019/09/29 00:25:39;;;;;;;5.2;2.1;;;;;;;;;;;;;
2019/09/29 00:28:17;;;;;;;6.8;2.1;;;;;;;;;;;;;
2019/09/29 00:30:49;;;;;;;8.5;2.3;;;;;;;;;;;;;
2019/09/29 00:33:22;;;;;;;6.4;2.1;;;;;;;;;;;;;
2019/09/29 00:35:47;;;;;;;4.4;2;;;;;;;;;;;;;
2019/09/29 00:38:15;;;;;;;6.2;2.1;;;;;;;;;;;;;
2019/09/29 00:40:39;;;;;;;4.4;1.9;;;;;;;;;;;;;
2019/09/29 00:43:04;;;;;;;6.5;2.2;;;;;;;;;;;;;
2019/09/29 00:45:29;;;;;;;4.3;2;;;;;;;;;;;;;
2019/09/29 00:47:56;;;;;;;8.5;2.4;;;;;;;;;;;;;
2019/09/29 00:50:22;;;;;;;5.2;2.2;;;;;;;;;;;;;
2019/09/29 00:52:46;;;;;;;7;2.2;;;;;;;;;;;;;
2019/09/29 00:55:15;;;;;;;7.6;2.1;;;;;;;;;;;;;
2019/09/29 00:57:36;;;;;;;6.1;2.1;;;;;;;;;;;;;
2019/09/29 01:00:01;;;;;;;5.5;2;;;;;;;;;;;;;
2019/09/29 01:02:27;;;;;;;4.4;2;;;;;;;;;;;;;
2019/09/29 01:04:56;;;;;;;6.8;1.9;;;;;;;;;;;;;
2019/09/29 01:07:21;;;;;;;5;2;;;;;;;;;;;;;
2019/09/29 01:09:49;;;;;;;7.1;2;;;;;;;;;;;;;
2019/09/29 01:12:17;;;;;;;5.7;2;;;;;;;;;;;;;
2019/09/29 01:14:38;;;;;;;7.7;2.1;;;;;;;;;;;;;
2019/09/29 01:17:03;;;;;;;6.3;1.9;;;;;;;;;;;;;
2019/09/29 01:19:27;;;;;;;7.3;2;;;;;;;;;;;;;
2019/09/29 01:22:06;;;;;;;7.9;2.5;;;;;;;;;;;;;
2019/09/29 01:26:56;;;;;;;7.5;2;;;;;;;;;;;;;
2019/09/29 01:29:11;;;;;;;7;1.9;;;;;;;;;;;;;
2019/09/29 01:31:37;;;;;;;5.6;1.8;;;;;;;;;;;;;
2019/09/29 01:34:00;;;;;;;4;1.8;;;;;;;;;;;;;
2019/09/29 01:36:25;;;;;;;3.8;1.5;;;;;;;;;;;;;
2019/09/29 01:38:52;;;;;;;5;1.9;;;;;;;;;;;;;
2019/09/29 01:41:18;;;;;;;5.2;2;;;;;;;;;;;;;
2019/09/29 01:43:41;;;;;;;6.8;1.9;;;;;;;;;;;;;
2019/09/29 01:46:07;;;;;;;6.5;2;;;;;;;;;;;;;
2019/09/29 01:48:35;;;;;;;6;1.8;;;;;;;;;;;;;
2019/09/29 01:51:00;;;;;;;4.4;2;;;;;;;;;;;;;
2019/09/29 01:53:28;;;;;;;6;2;;;;;;;;;;;;;
2019/09/29 01:55:53;;;;;;;3.8;1.9;;;;;;;;;;;;;
2019/09/29 01:58:17;;;;;;;5.9;1.9;;;;;;;;;;;;;
2019/09/29 02:00:40;;;;;;;8.8;2.3;;;;;;;;;;;;;
2019/09/29 02:03:12;;;;;;;4.9;2;;;;;;;;;;;;;
2019/09/29 02:05:35;;;;;;;4.4;1.8;;;;;;;;;;;;;
2019/09/29 02:08:20;;;;;;;6;1.9;;;;;;;;;;;;;
2019/09/29 02:10:48;;;;;;;5.7;2;;;;;;;;;;;;;
2019/09/29 02:13:13;;;;;;;5.4;2.1;;;;;;;;;;;;;
2019/09/29 02:15:37;;;;;;;4.4;2.1;;;;;;;;;;;;;
2019/09/29 02:18:07;;;;;;;8;2.4;;;;;;;;;;;;;
2019/09/29 02:20:30;;;;;;;5;2;;;;;;;;;;;;;
2019/09/29 02:22:55;;;;;;;5.9;2.2;;;;;;;;;;;;;
2019/09/29 02:25:19;;;;;;;5.7;2.4;;;;;;;;;;;;;
2019/09/29 02:27:48;;;;;;;6.5;2.2;;;;;;;;;;;;;
2019/09/29 02:30:11;;;;;;;3.7;1.8;;;;;;;;;;;;;
2019/09/29 02:32:35;;;;;;;6.4;2;;;;;;;;;;;;;
2019/09/29 02:35:01;;;;;;;6.2;2;;;;;;;;;;;;;
2019/09/29 02:37:30;;;;;;;5.6;2.1;;;;;;;;;;;;;
2019/09/29 02:39:54;;;;;;;6;2.1;;;;;;;;;;;;;
2019/09/29 02:42:18;;;;;;;7.5;2.2;;;;;;;;;;;;;
2019/09/29 02:44:43;;;;;;;6.7;1.8;;;;;;;;;;;;;
2019/09/29 02:47:14;;;;;;;5.3;1.8;;;;;;;;;;;;;
2019/09/29 02:49:35;;;;;;;7.1;2;;;;;;;;;;;;;
2019/09/29 02:52:00;;;;;;;5.5;2.1;;;;;;;;;;;;;
2019/09/29 02:54:23;;;;;;;6;1.9;;;;;;;;;;;;;
2019/09/29 02:57:02;;;;;;;7.9;2;;;;;;;;;;;;;
2019/09/29 02:59:27;;;;;;;4.9;1.9;;;;;;;;;;;;;
2019/09/29 03:02:21;;;;;;;5.4;1.9;;;;;;;;;;;;;
2019/09/29 03:04:47;;;;;;;5.8;1.6;;;;;;;;;;;;;
2019/09/29 03:07:18;;;;;;;5;1.9;;;;;;;;;;;;;
2019/09/29 03:09:37;;;;;;;5.7;1.8;;;;;;;;;;;;;
2019/09/29 03:12:20;;;;;;;3.9;2;;;;;;;;;;;;;
2019/09/29 03:14:45;;;;;;;5.1;1.8;;;;;;;;;;;;;
2019/09/29 03:17:16;;;;;;;3.9;1.8;;;;;;;;;;;;;
2019/09/29 03:19:36;;;;;;;5.9;2.1;;;;;;;;;;;;;
2019/09/29 03:22:03;;;;;;;5.3;1.9;;;;;;;;;;;;;
2019/09/29 03:24:30;;;;;;;6.6;1.9;;;;;;;;;;;;;
2019/09/29 03:26:57;;;;;;;6.1;2.1;;;;;;;;;;;;;
2019/09/29 03:29:18;;;;;;;4.5;2;;;;;;;;;;;;;
2019/09/29 03:31:44;;;;;;;6.2;1.9;;;;;;;;;;;;;
2019/09/29 03:34:11;;;;;;;4.5;2.2;;;;;;;;;;;;;
2019/09/29 03:36:36;;;;;;;6;3.2;;;;;;;;;;;;;
2019/09/29 03:39:07;;;;;;;5.2;2.6;;;;;;;;;;;;;
2019/09/29 03:41:28;;;;;;;4.5;1.7;;;;;;;;;;;;;
2019/09/29 03:44:14;;;;;;;5.1;2.4;;;;;;;;;;;;;
2019/09/29 03:46:32;;;;;;;5.7;2.7;;;;;;;;;;;;;
2019/09/29 03:49:23;;;;;;;5.1;2.2;;;;;;;;;;;;;
2019/09/29 03:51:55;;;;;;;4.8;1.8;;;;;;;;;;;;;
2019/09/29 03:54:18;;;;;;;5.1;2.4;;;;;;;;;;;;;
2019/09/29 03:56:52;;;;;;;4.4;1.9;;;;;;;;;;;;;
2019/09/29 03:59:25;;;;;;;7;2.1;;;;;;;;;;;;;
2019/09/29 04:02:59;;;;;;;5;2.1;;;;;;;10.38;84.8252;938.1016;;;;
2019/09/29 04:05:28;;;;;;;8.2;2.1;;;;;;;10.35;84.77441;938.1347;;;;
2019/09/29 04:07:52;;;;;;;4.9;1.9;;;;;;;10.4;84.43066;938.1288;;;;
2019/09/29 04:10:17;;;;;;;7.3;2.2;;;;;;;10.23;84.80664;938.089;;;;
2019/09/29 04:12:46;;;;;;;4.1;2;;;;;;;10.14;85.57617;938.0253;;;;
2019/09/29 04:15:15;;;;;;;5.7;2.5;;;;;;;10.02;85.87402;937.9692;;;;
2019/09/29 04:17:44;;;;;;;7.4;2.3;;;;;;;9.83;87.08789;937.97;;;;
2019/09/29 04:20:08;;;;;;;4.5;2.2;;;;;;;9.89;86.82715;937.8983;;;;
2019/09/29 04:22:36;;;;;;;4.8;2;;;;;;;9.76;87.2334;937.9084;;;;
2019/09/29 04:25:00;;;;;;;4.1;2.5;;;;;;;9.75;87.71191;937.96;;;;
2019/09/29 04:27:33;;;;;;;7.6;2.4;;;;;;;9.98;86.86621;937.8173;;;;
2019/09/29 04:29:59;;;;;;;6.3;2.3;;;;;;;10.05;85.87695;937.7659;;;;
2019/09/29 04:32:32;;;;;;;4.4;2.1;;;;;;;9.59;87.63281;937.7908;;;;
2019/09/29 04:35:00;;;;;;;4.7;2.2;;;;;;;9.46;88.28906;937.7844;;;;
2019/09/29 04:37:24;;;;;;;4.8;2.3;;;;;;;9.21;89.60352;937.7646;;;;
2019/09/29 04:39:47;;;;;;;4.9;2.2;;;;;;;9.4;88.87012;937.8025;;;;
2019/09/29 04:42:21;;;;;;;8.9;2.6;;;;;;;9.2;89.72852;937.7416;;;;
2019/09/29 04:44:45;;;;;;;5.2;2.3;;;;;;;9.24;89.66602;937.7367;;;;
2019/09/29 04:47:18;;;;;;;4.7;2.5;;;;;;;9.18;89.79102;937.7484;;;;
2019/09/29 04:49:42;;;;;;;4.1;2.2;;;;;;;9.21;89.53516;937.6693;;;;
2019/09/29 04:52:15;;;;;;;8.3;2.7;;;;;;;9.04;90.45703;937.6607;;;;
2019/09/29 04:54:46;;;;;;;6.5;2.6;;;;;;;9.29;89.25586;937.6183;;;;
2019/09/29 04:57:12;;;;;;;5;2.3;;;;;;;9.53;88.30176;937.6278;;;;
2019/09/29 04:59:41;;;;;;;5.3;2.2;;;;;;;9.7;87.19727;937.5992;;;;
2019/09/29 05:02:03;;;;;;;4.4;2.1;;;;;;;9.71;86.87109;937.5453;;;;
2019/09/29 05:04:27;;;;;;;3.7;2.2;;;;;;;9.77;86.91602;937.5388;;;;
2019/09/29 05:06:53;;;;;;;3.8;2.3;;;;;;;9.9;85.9375;937.5818;;;;
2019/09/29 05:09:24;;;;;;;5.4;2.6;;;;;;;9.94;85.36719;937.4773;;;;
2019/09/29 05:14:27;;;;;;;3.8;2.3;;;;;;;9.56;86.49805;937.5925;;;;
2019/09/29 05:16:52;;;;;;;4.2;2.1;;;;;;;9.57;86.35156;937.5092;;;;
2019/09/29 05:19:20;;;;;;;4.4;2.2;;;;;;;9.44;86.85059;937.4988;;;;
2019/09/29 05:21:50;;;;;;;2.8;1.9;;;;;;;9.54;86.58594;937.4445;;;;
2019/09/29 05:24:22;;;;;;;4;1.9;;;;;;;9.62;86.45215;937.5117;;;;
2019/09/29 05:26:46;;;;;;;6.5;2.4;;;;;;;9.75;85.87695;937.51;;;;
2019/09/29 05:29:16;;;;;;;5.8;2.3;;;;;;;9.82;85.31934;937.4514;;;;
2019/09/29 05:31:40;;;;;;;5;2.1;;;;;;;9.55;85.83594;937.5192;;;;
2019/09/29 05:34:31;;;;;;;3.8;2.1;;;;;;;9.64;85.93359;937.4633;;;;
2019/09/29 05:37:05;;;;;;;5.3;2.1;;;;;;;9.69;85.72754;937.3645;;;;
2019/09/29 05:39:31;;;;;;;5.1;2;;;;;;;9.72;85.4248;937.3236;;;;
2019/09/29 05:42:01;;;;;;;5.1;2.2;;;;;;;9.83;85.08398;937.2957;;;;
2019/09/29 05:44:33;;;;;;;5;2.1;;;;;;;9.8;85.35938;937.2783;;;;
2019/09/29 05:47:08;;;;;;;4.1;2.2;;;;;;;9.91;84.7334;937.2813;;;;
2019/09/29 05:49:39;;;;;;;4.9;2.1;;;;;;;9.75;84.95215;937.2658;;;;
2019/09/29 05:52:05;;;;;;;5.9;2.5;;;;;;;9.72;85.83594;937.1597;;;;
2019/09/29 05:54:34;;;;;;;10.8;2.6;;;;;;;9.86;85.3623;937.2252;;;;
2019/09/29 05:57:08;;;;;;;3.7;2.3;;;;;;;9.9;85.5293;937.2383;;;;
2019/09/29 05:59:33;;;;;;;8;2.6;;;;;;;9.98;85.80566;937.2342;;;;
2019/09/29 06:02:01;;;;;;;6.4;2;;;;;;;10.18;85.03711;937.1721;;;;
2019/09/29 06:04:30;;;;;;;4.8;2.2;;;;;;;10.18;85.14941;937.1664;;;;
2019/09/29 06:06:59;;;;;;;5.4;2.3;;;;;;;10.26;85.23535;937.1622;;;;
2019/09/29 06:09:23;;;;;;;5.5;2.5;;;;;;;10.23;86.4834;937.1269;;;;
2019/09/29 06:11:57;;;;;;;6.4;2.4;;;;;;;10.34;86.36816;937.1422;;;;
2019/09/29 06:14:28;;;;;;;6.1;2;;;;;;;10.56;85.06641;937.1106;;;;
2019/09/29 06:17:02;;;;;;;5;2.1;;;;;;;10.59;85.17578;937.1325;;;;
2019/09/29 06:19:38;;;;;;;6.6;2.2;;;;;;;10.78;84.36621;937.1603;;;;
2019/09/29 06:21:57;;;;;;;4.5;2.2;;;;;;;10.64;83.69824;937.0973;;;;
2019/09/29 06:24:28;;;;;;;7.6;2.1;;;;;;;10.64;84.24707;937.1013;;;;
2019/09/29 06:26:51;;;;;;;5.1;2.2;;;;;;;10.87;83.96094;937.0672;;;;
2019/09/29 06:29:18;;;;;;;5.8;2.3;;;;;;;10.91;84.41406;937.093;;;;
2019/09/29 06:31:45;;;;;;;8;2.4;;;;;;;11.25;83.08496;937.0786;;;;
2019/09/29 06:34:08;;;;;;;4.7;2.1;;;;;;;11.47;82.02832;937.0966;;;;
2019/09/29 06:36:39;;;;;;;3.4;1.8;;;;;;;11.64;82.03809;937.0641;;;;
2019/09/29 06:39:06;;;;;;;5.3;2.1;;;;;;;11.6;81.72266;937.1481;;;;
2019/09/29 06:41:31;;;;;;;6.1;2.2;;;;;;;11.45;82.78027;937.1284;;;;
2019/09/29 06:43:59;;;;;;;4.7;1.9;;;;;;;11.82;82.0498;937.0316;;;;
2019/09/29 06:46:23;;;;;;;4.9;2;;;;;;;12.09;81.37891;937.0197;;;;
2019/09/29 06:48:49;;;;;;;6.2;2;;;;;;;12.04;81.15137;936.9917;;;;
2019/09/29 06:51:20;;;;;;;4.5;2;;;;;;;12.29;81.20996;936.942;;;;
2019/09/29 06:56:27;;;;;;;5.8;1.8;;;;;;;12.39;81.1709;936.8463;;;;
2019/09/29 07:01:29;;;;;;;4.3;2.2;;;;;;;12.17;81.58887;936.8051;;;;
2019/09/29 07:03:56;;;;;;;4.1;1.7;;;;;;;12.68;80.67383;936.8099;;;;
2019/09/29 07:06:21;;;;;;;5.5;2;;;;;;;13.22;78.58203;936.6628;;;;
2019/09/29 07:09:29;;;;;;;4.9;1.9;;;;;;;13.6;76.9375;936.6495;;;;
2019/09/29 07:11:45;;;;;;;5.2;1.7;;;;;;;13.98;75.58887;936.5639;;;;
2019/09/29 07:14:27;;;;;;;3.4;1.6;;;;;;;14.26;74.3916;936.4905;;;;
2019/09/29 07:16:58;;;;;;;5;2;;;;;;;14.68;73.47266;936.5023;;;;
2019/09/29 07:19:26;;;;;;;4.6;2.4;;;;;;;14.69;71.97559;936.4461;;;;
2019/09/29 07:21:54;;;;;;;8;2.5;;;;;;;15.29;69.79004;936.358;;;;
2019/09/29 07:24:26;;;;;;;4.7;1.9;;;;;;;15.66;68.78613;936.2844;;;;
2019/09/29 07:26:53;;;;;;;6.6;2.5;;;;;;;15.83;68.73145;936.3331;;;;
2019/09/29 07:29:24;;;;;;;8.1;2.8;;;;;;;16.33;67.43359;936.2234;;;;
2019/09/29 07:31:56;;;;;;;5.8;2.2;;;;;;;16.83;64.91504;936.2966;;;;
2019/09/29 07:34:30;;;;;;;4.7;2.3;;;;;;;17.11;64.88672;936.2483;;;;
2019/09/29 07:37:01;;;;;;;5.4;2;;;;;;;17.93;60.79297;936.1885;;;;
2019/09/29 07:39:26;;;;;;;4.5;2.1;;;;;;;18.53;59.83008;936.1577;;;;
2019/09/29 07:41:58;;;;;;;4.2;1.8;;;;;;;19.26;56.85352;936.1041;;;;
2019/09/29 07:44:31;;;;;;;4.7;1.9;;;;;;;20.04;54.81934;936.0399;;;;
2019/09/29 07:46:56;;;;;;;1.8;1.3;;;;;;;20.49;52.90137;935.9991;;;;
2019/09/29 07:49:25;;;;;;;4.2;1.7;;;;;;;21.15;50.88574;935.9487;;;;
2019/09/29 07:51:59;;;;;;;2.8;1.5;;;;;;;21.62;50.16602;935.9952;;;;
2019/09/29 07:54:31;;;;;;;5.9;1.5;;;;;;;21.2;50.28223;935.9763;;;;
2019/09/29 07:56:58;;;;;;;3.7;1.5;;;;;;;22.13;47.75;935.8934;;;;
2019/09/29 07:59:27;;;;;;;6.1;1.4;;;;;;;22.71;46.07617;935.8685;;;;
2019/09/29 08:02:02;;;;;;;3.6;1.6;;;;;;;21.91;50.04688;935.8194;;;;
2019/09/29 08:04:33;;;;;;;4.9;1.6;;;;;;;22.55;48.41797;935.8076;;;;
2019/09/29 08:07:03;;;;;;;2.8;1.4;;;;;;;23.86;43.41699;935.7697;;;;
2019/09/29 08:09:37;;;;;;;2.8;1.3;;;;;;;24.81;43.36816;935.8105;;;;
2019/09/29 08:12:10;;;;;;;3.2;1.4;;;;;;;25.47;43.19629;935.7508;;;;
2019/09/29 08:14:43;;;;;;;2.7;1.4;;;;;;;25.55;41.4668;935.7417;;;;
2019/09/29 08:17:29;;;;;;;3.7;2;;;;;;;24.71;42.875;935.7478;;;;
2019/09/29 08:19:58;;;;;;;4.8;2.2;;;;;;;25.03;42.77539;935.7695;;;;
2019/09/29 08:22:24;;;;;;;3.1;1.6;;;;;;;24.29;43.30566;935.6537;;;;
2019/09/29 08:24:54;;;;;;;4;1.6;;;;;;;24.15;43.02051;935.5502;;;;
2019/09/29 08:27:19;;;;;;;2.4;1.2;;;;;;;23.79;43.31738;935.5594;;;;
2019/09/29 08:29:49;;;;;;;1.7;1.2;;;;;;;22.9;45.29688;935.5349;;;;
2019/09/29 08:34:59;;;;;;;2.9;1.2;;;;;;;24.02;45.89355;935.4914;;;;
2019/09/29 08:37:29;;;;;;;2.8;1.3;;;;;;;24.54;45.4043;935.5165;;;;
2019/09/29 08:40:08;;;;;;;2.8;1.4;;;;;;;24.83;42.94531;935.4067;;;;
2019/09/29 08:42:35;;;;;;;2.1;1.4;;;;;;;24.02;43.19727;935.3457;;;;
2019/09/29 08:45:03;;;;;;;4.2;1.5;;;;;;;23.26;45.21582;935.3162;;;;
2019/09/29 08:47:30;;;;;;;2.9;1.5;;;;;;;22.18;46.00781;935.3394;;;;
2019/09/29 08:49:55;;;;;;;3.1;1.4;;;;;;;22.12;48.11328;935.3075;;;;
2019/09/29 08:52:25;;;;;;;3.7;1.7;;;;;;;21.69;47.41016;935.2714;;;;
2019/09/29 08:54:56;;;;;;;3.2;1.5;;;;;;;21.61;48.25684;935.1666;;;;
2019/09/29 08:57:24;;;;;;;3.3;1.6;;;;;;;22.07;49.50195;935.1287;;;;
2019/09/29 08:59:50;;;;;;;2.1;1.5;;;;;;;22.2;46.45703;935.1314;;;;
2019/09/29 09:02:19;;;;;;;2.7;1.4;;;;;;;21.53;49.29004;935.074;;;;
2019/09/29 09:05:01;;;;;;;2.6;1.5;;;;;;;21.83;47.77734;935.0637;;;;
2019/09/29 09:07:32;;;;;;;3.3;1.7;;;;;;;22.08;48.62402;935.0295;;;;
2019/09/29 09:10:07;;;;;;;3.8;1.4;;;;;;;22.2;50.08008;934.9036;;;;
2019/09/29 09:12:35;;;;;;;3.7;1.5;;;;;;;22.37;48.2334;934.8881;;;;
2019/09/29 09:15:03;;;;;;;4.5;1.8;;;;;;;22.38;48.92676;934.8275;;;;
2019/09/29 09:17:33;;;;;;;2.7;1.6;;;;;;;22.41;51.2998;934.7612;;;;
2019/09/29 09:20:06;;;;;;;3.7;1.6;;;;;;;22.56;51;934.7369;;;;
2019/09/29 09:22:38;;;;;;;2.7;1.7;;;;;;;22.41;48.2627;934.6679;;;;
2019/09/29 09:25:11;;;;;;;2.2;1.5;;;;;;;22.27;51.21387;934.647;;;;
2019/09/29 09:27:48;;;;;;;4.3;1.8;;;;;;;21.97;47.39355;934.5353;;;;
2019/09/29 09:30:17;;;;;;;3.7;1.8;;;;;;;22.01;53.04688;934.5603;;;;
2019/09/29 09:32:43;;;;;;;4.5;1.7;;;;;;;21.7;47.9043;934.4434;;;;
2019/09/29 09:35:12;;;;;;;3.6;1.6;;;;;;;21.78;51.09863;934.3853;;;;
2019/09/29 09:37:37;;;;;;;4.5;1.9;;;;;;;21.94;51.90332;934.3839;;;;
2019/09/29 09:40:06;;;;;;;3.3;1.7;;;;;;;22.03;53.17871;934.3635;;;;
2019/09/29 09:42:34;;;;;;;2.3;1.6;;;;;;;21.83;48.31543;934.2483;;;;
2019/09/29 09:45:34;;;;;;;4.6;1.8;;;;;;;21.89;51.49805;934.2564;;;;
2019/09/29 09:47:55;;;;;;;2.8;1.6;;;;;;;22.06;50.37988;934.2249;;;;
2019/09/29 09:50:22;;;;;;;2.9;1.5;;;;;;;22.11;49.26074;934.2244;;;;
2019/09/29 09:52:53;;;;;;;3.3;1.6;;;;;;;22.1;49.57617;934.1616;;;;
2019/09/29 09:55:24;;;;;;;3.6;1.6;;;;;;;22.07;52.73828;934.1191;;;;
2019/09/29 09:57:48;;;;;;;3.1;1.7;;;;;;;22.09;51.25098;934.0137;;;;
2019/09/29 10:00:23;;;;;;;3.3;1.7;;;;;;;22.06;51.14258;934.0432;;;;
2019/09/29 10:02:55;;;;;;;3.7;1.6;;;;;;;21.93;50.09766;933.9725;;;;
2019/09/29 10:05:26;;;;;;;2.1;1.6;;;;;;;21.91;52.64746;933.882;;;;
2019/09/29 10:07:57;;;;;;;2.4;1.6;;;;;;;21.76;51.02539;933.8666;;;;
2019/09/29 10:10:25;;;;;;;2.5;1.7;;;;;;;21.78;52.10645;933.8469;;;;
2019/09/29 10:12:57;;;;;;;3.3;2;;;;;;;21.92;53.3291;933.8077;;;;
2019/09/29 10:15:25;;;;;;;3.8;1.7;;;;;;;22.01;51.98047;933.7747;;;;
2019/09/29 10:18:00;;;;;;;2.8;1.7;;;;;;;21.96;51.71777;933.7272;;;;
2019/09/29 10:20:28;;;;;;;2.5;1.6;;;;;;;21.99;47.8877;933.6782;;;;
2019/09/29 10:23:01;;;;;;;3.7;1.6;;;;;;;22.22;48.72168;933.5783;;;;
2019/09/29 10:25:29;;;;;;;2.9;1.8;;;;;;;22.46;46.51953;933.5771;;;;
2019/09/29 10:28:03;;;;;;;2.7;1.5;;;;;;;22.55;45.07324;933.4571;;;;
2019/09/29 10:30:32;;;;;;;2.1;1.5;;;;;;;22.68;44.41797;933.515;;;;
2019/09/29 10:32:56;;;;;;;2.1;1.5;;;;;;;22.69;45.34668;933.4617;;;;
2019/09/29 10:35:22;;;;;;;3.4;2;;;;;;;22.88;45.91797;933.3904;;;;
2019/09/29 10:37:55;;;;;;;4.8;1.6;;;;;;;22.91;43.70117;933.3844;;;;
2019/09/29 10:40:28;;;;;;;2.5;1.5;;;;;;;22.93;45.04102;933.3243;;;;
2019/09/29 10:42:56;;;;;;;3.1;1.5;;;;;;;23.01;43.6875;933.3414;;;;
2019/09/29 10:45:20;;;;;;;2.2;1.6;;;;;;;23;43.7207;933.2187;;;;
2019/09/29 10:47:53;;;;;;;2.4;1.6;;;;;;;23.25;45.53223;933.2408;;;;
2019/09/29 10:50:26;;;;;;;2;1.5;;;;;;;23.38;46.7207;933.2305;;;;
2019/09/29 10:52:59;;;;;;;3.9;1.5;;;;;;;23.48;48.97754;933.1567;;;;
2019/09/29 10:55:30;;;;;;;2.3;1.6;;;;;;;23.83;45.17871;933.1055;;;;
2019/09/29 10:57:56;;;;;;;2.4;1.6;;;;;;;24.79;44.19238;933.0219;;;;
2019/09/29 11:00:29;;;;;;;3.1;1.5;;;;;;;25.84;38.99902;932.976;;;;
2019/09/29 11:03:02;;;;;;;2;1.5;;;;;;;26.68;36.45508;932.9201;;;;
2019/09/29 11:05:27;;;;;;;1.8;1.4;;;;;;;27.26;35.39941;932.9886;;;;
2019/09/29 11:07:57;;;;;;;2.2;1.3;;;;;;;27.75;35.73535;932.8679;;;;
2019/09/29 11:10:24;;;;;;;2.7;1.3;;;;;;;28.03;34.2959;932.7441;;;;
2019/09/29 11:12:51;;;;;;;3.1;1.3;;;;;;;28.36;34.10742;932.7581;;;;
2019/09/29 11:15:31;;;;;;;3.3;1.5;;;;;;;28.48;35.59082;932.6912;;;;
2019/09/29 11:17:56;;;;;;;2.2;1.4;;;;;;;28.59;34.67188;932.6813;;;;
2019/09/29 11:20:28;;;;;;;3;1.4;;;;;;;28.63;35.41211;932.5673;;;;
2019/09/29 11:22:55;;;;;;;2.1;1.4;;;;;;;28.32;39.94043;932.5623;;;;
2019/09/29 11:25:24;;;;;;;2.9;1.9;;;;;;;28.11;40.9668;932.4911;;;;
2019/09/29 11:27:54;;;;;;;3.1;1.5;;;;;;;27.76;42.11133;932.4925;;;;
2019/09/29 11:30:24;;;;;;;8.4;1.6;;;;;;;27.44;41.86719;932.4387;;;;
2019/09/29 11:32:55;;;;;;;4.2;1.6;;;;;;;27.34;42.42871;932.3734;;;;
2019/09/29 11:35:26;;;;;;;2.7;1.5;;;;;;;27.48;42.36914;932.3765;;;;
2019/09/29 11:37:51;;;;;;;3.1;1.4;;;;;;;28.01;40.91113;932.3641;;;;
2019/09/29 11:40:25;;;;;;;3;1.3;;;;;;;28.57;40.35547;932.3078;;;;
2019/09/29 11:43:03;;;;;;;2.6;1.5;;;;;;;29.28;36.75;932.1774;;;;
2019/09/29 11:45:31;;;;;;;4.1;1.5;;;;;;;30.36;34.93848;932.192;;;;
2019/09/29 11:48:04;;;;;;;2.1;1.3;;;;;;;31.41;31.74023;932.1955;;;;
2019/09/29 11:50:32;;;;;;;2.9;1.5;;;;;;;31.78;32.44922;932.1259;;;;
2019/09/29 11:52:58;;;;;;;3.4;1.4;;;;;;;32.09;32.49512;932.0159;;;;
2019/09/29 11:55:31;;;;;;;2.4;1.3;;;;;;;32.25;32.48242;931.9989;;;;
2019/09/29 11:58:05;;;;;;;2.8;1.2;;;;;;;33.54;30.39941;931.9702;;;;
2019/09/29 12:00:35;;;;;;;2.7;1.5;;;;;;;34.45;30.26758;931.9461;;;;
2019/09/29 12:03:02;;;;;;;2.9;1.2;;;;;;;35.49;28.00488;931.9322;;;;
2019/09/29 12:05:38;;;;;;;3.2;1.3;;;;;;;36.93;26.00977;931.8435;;;;
2019/09/29 12:09:34;;;;;;;2.5;1.2;;;;;;;38.19;23.95508;931.8259;;;;
2019/09/29 12:11:50;;;;;;;2.8;1.3;;;;;;;39.07;21.43262;931.6903;;;;
2019/09/29 12:14:23;;;;;;;2.7;1.1;;;;;;;39.4;22.58105;931.7165;;;;
2019/09/29 12:16:55;;;;;;;3;1.1;;;;;;;39.67;22.28906;931.698;;;;
2019/09/29 12:19:23;;;;;;;1.6;1.1;;;;;;;39.39;22.21484;931.6426;;;;
2019/09/29 12:21:47;;;;;;;2.5;1;;;;;;;39.67;22.09473;931.6362;;;;
2019/09/29 12:24:13;;;;;;;1.6;1.1;;;;;;;39.53;21.85645;931.5758;;;;
2019/09/29 12:26:47;;;;;;;2;1.2;;;;;;;40.63;20.38184;931.5693;;;;
2019/09/29 12:29:18;;;;;;;2.8;1.2;;;;;;;40.69;20.95898;931.5823;;;;
2019/09/29 12:31:43;;;;;;;2.3;1.3;;;;;;;39.68;22.5332;931.5217;;;;
2019/09/29 12:34:19;;;;;;;2;1.1;;;;;;;38.81;23.00195;931.4742;;;;
2019/09/29 12:36:48;;;;;;;2.7;1.1;;;;;;;38.4;24.14844;931.4244;;;;
2019/09/29 12:39:15;;;;;;;2.8;1;;;;;;;39.26;22.80566;931.4473;;;;
2019/09/29 12:41:44;;;;;;;2;1.2;;;;;;;39.75;22.76855;931.4146;;;;
2019/09/29 12:44:09;;;;;;;2.3;1.1;;;;;;;39.57;22.33301;931.4561;;;;
2019/09/29 12:46:37;;;;;;;3.4;1.2;;;;;;;39.9;21.9834;931.4165;;;;
2019/09/29 12:49:04;;;;;;;2.5;1.2;;;;;;;40.98;20.53125;931.4444;;;;
2019/09/29 12:51:44;;;;;;;1.7;1.1;;;;;;;41.41;20.11035;931.3789;;;;
2019/09/29 12:54:16;;;;;;;1.9;1.1;;;;;;;41.73;19.99023;931.3561;;;;
2019/09/29 12:56:43;;;;;;;2.6;1;;;;;;;41.73;19.81836;931.2792;;;;
2019/09/29 12:59:13;;;;;;;1.8;1;;;;;;;41.64;20.03418;931.3141;;;;
2019/09/29 13:01:37;;;;;;;2.3;1.1;;;;;;;42.27;19.41211;931.218;;;;
2019/09/29 13:04:09;;;;;;;3.4;1.2;;;;;;;42.26;18.68848;931.2656;;;;
2019/09/29 13:06:35;;;;;;;2.1;1.1;;;;;;;41.7;19.6582;931.2813;;;;
2019/09/29 13:09:07;;;;;;;1.9;0.9;;;;;;;42.44;19.56641;931.2424;;;;
2019/09/29 13:11:53;;;;;;;2.7;1;;;;;;;42.21;19.9375;931.2353;;;;
2019/09/29 13:17:06;;;;;;;1.8;1.2;;;;;;;40.27;20.81738;931.1516;;;;
2019/09/29 13:19:35;;;;;;;1.9;1.1;;;;;;;40.02;21.85547;931.1817;;;;
2019/09/29 13:22:04;;;;;;;2.3;1;;;;;;;39.7;21.57129;931.1509;;;;
2019/09/29 13:24:31;;;;;;;2;1.1;;;;;;;39.87;21.39648;931.1805;;;;
2019/09/29 13:27:03;;;;;;;2.6;1;;;;;;;39.94;21.43652;931.1365;;;;
2019/09/29 13:29:36;;;;;;;2.5;1.2;;;;;;;39.98;22.09668;931.1021;;;;
2019/09/29 13:32:29;;;;;;;2.3;1.1;;;;;;;40.12;22.10352;931.0665;;;;
2019/09/29 13:34:37;;;;;;;3.5;1.1;;;;;;;40.66;21.37207;931.09;;;;
2019/09/29 13:37:05;;;;;;;2.9;1.2;;;;;;;38.7;22.52246;931.0656;;;;
2019/09/29 13:39:44;;;;;;;3.3;1.1;;;;;;;37.33;24.68652;930.9964;;;;
2019/09/29 13:42:14;;;;;;;3.4;1.4;;;;;;;35.83;27.02246;931.022;;;;
2019/09/29 13:44:44;;;;;;;2.4;1.1;;;;;;;34.58;28.52832;931.0388;;;;
2019/09/29 13:47:14;;;;;;;2.7;1.1;;;;;;;33.61;30.77637;930.9992;;;;
2019/09/29 13:49:45;;;;;;;2.4;1.2;;;;;;;32.57;32.00195;931.0388;;;;
2019/09/29 13:52:12;;;;;;;2.5;1.3;;;;;;;31.6;34.35254;931.0517;;;;
2019/09/29 13:54:39;;;;;;;1.9;1.3;;;;;;;30.64;35.88086;930.9494;;;;
2019/09/29 13:57:08;;;;;;;2.2;1.2;;;;;;;30.07;37.05371;930.9473;;;;
2019/09/29 13:59:36;;;;;;;2.4;1.3;;;;;;;29.33;39.125;930.9324;;;;
2019/09/29 14:02:00;;;;;;;2.5;1.4;;;;;;;28.57;40.22461;930.9573;;;;
2019/09/29 14:04:26;;;;;;;4.6;1.6;;;;;;;28.12;42.17969;930.9323;;;;
2019/09/29 14:07:00;;;;;;;3;1.5;;;;;;;28.55;41.06641;930.865;;;;
2019/09/29 14:09:40;;;;;;;4.1;1.4;;;;;;;29.34;39.90039;930.8569;;;;
2019/09/29 14:12:31;;;;;;;3.2;1.3;;;;;;;30.08;38.43848;930.8748;;;;
2019/09/29 14:14:49;;;;;;;4;1.5;;;;;;;30.66;36.14453;930.861;;;;
2019/09/29 14:17:32;;;;;;;4.9;1.5;;;;;;;31.55;34.59961;930.8369;;;;
2019/09/29 14:20:14;;;;;;;2.9;1.4;;;;;;;31.83;34.18945;930.8292;;;;
2019/09/29 14:22:45;;;;;;;2.5;1.2;;;;;;;33.1;32.61621;930.8961;;;;
2019/09/29 14:25:30;;;;;;;3.3;1.5;;;;;;;33.92;30.89355;930.8511;;;;
2019/09/29 14:27:44;;;;;;;3.1;1.2;;;;;;;34.61;29.30078;930.8279;;;;
2019/09/29 14:30:20;;;;;;;4.5;1.3;;;;;;;33.99;29.9834;930.7878;;;;
2019/09/29 14:33:39;;;;;;;2.3;1.3;;;;;;;34.15;30.29492;930.7759;;;;
2019/09/29 14:35:39;;;;;;;3.1;1.3;;;;;;;34.61;29.3252;930.8053;;;;
2019/09/29 14:38:11;;;;;;;2.6;1.3;;;;;;;34.77;30.16797;930.7468;;;;
2019/09/29 14:40:47;;;;;;;2;1.2;;;;;;;35.04;29.7627;930.6998;;;;
2019/09/29 14:43:17;;;;;;;2.6;1.3;;;;;;;34.68;29.77539;930.7082;;;;
2019/09/29 14:45:41;;;;;;;3.7;1.4;;;;;;;33.83;31.47754;930.6564;;;;
2019/09/29 14:48:07;;;;;;;2.1;1.2;;;;;;;32.58;33.23926;930.6108;;;;
2019/09/29 14:50:41;;;;;;;5;1.4;;;;;;;31.68;34.48926;930.5405;;;;
2019/09/29 14:53:31;;;;;;;1.9;1.3;;;;;;;30.59;36.31934;930.5103;;;;
2019/09/29 14:58:35;;;;;;;3;1.5;;;;;;;28.99;41.00098;930.5168;;;;
2019/09/29 15:01:01;;;;;;;4.7;1.3;;;;;;;28.25;42.84766;930.5;;;;
2019/09/29 15:03:32;;;;;;;2.8;1.2;;;;;;;27.72;44.87305;930.4579;;;;
2019/09/29 15:06:00;;;;;;;3;1.5;;;;;;;26.92;45.93164;930.498;;;;
2019/09/29 15:08:37;;;;;;;3.9;1.3;;;;;;;26.3;47.91504;930.4456;;;;
2019/09/29 15:11:04;;;;;;;4.3;1.5;;;;;;;26.03;48.50195;930.4167;;;;
2019/09/29 15:13:33;;;;;;;5;1.6;;;;;;;25.72;49.54297;930.4658;;;;
2019/09/29 15:16:02;;;;;;;3.9;1.5;;;;;;;25.45;50.12793;930.3806;;;;
2019/09/29 15:18:38;;;;;;;3.3;1.5;;;;;;;25.26;49.91602;930.3724;;;;
2019/09/29 15:21:07;;;;;;;4.2;1.9;;;;;;;24.98;51.13574;930.4592;;;;
2019/09/29 15:23:43;;;;;;;2.3;1.4;;;;;;;24.78;51.96289;930.4246;;;;
2019/09/29 15:26:11;;;;;;;4.3;1.6;;;;;;;24.54;52.7832;930.418;;;;
2019/09/29 15:28:36;;;;;;;4.4;1.5;;;;;;;24.23;54.10254;930.4451;;;;
2019/09/29 15:31:22;;;;;;;2.7;1.5;;;;;;;24.01;55.55762;930.4749;;;;
2019/09/29 15:33:52;;;;;;;3.2;1.7;;;;;;;23.94;56.4668;930.4413;;;;
2019/09/29 15:36:25;;;;;;;3.4;1.7;;;;;;;23.76;55.89258;930.3613;;;;
2019/09/29 15:38:54;;;;;;;2.6;1.7;;;;;;;23.52;55.97949;930.4394;;;;
2019/09/29 15:41:25;;;;;;;4;1.7;;;;;;;23.01;57.70117;930.3798;;;;
2019/09/29 15:43:53;;;;;;;4.7;1.7;;;;;;;23.09;57.40527;930.3714;;;;
2019/09/29 15:46:29;;;;;;;3.6;1.6;;;;;;;22.96;58.25977;930.3221;;;;
2019/09/29 15:51:33;;;;;;;3.7;1.7;;;;;;;22.87;57.54199;930.3592;;;;
2019/09/29 15:54:08;;;;;;;4.6;1.5;;;;;;;22.86;57.22363;930.299;;;;
2019/09/29 15:56:29;;;;;;;4.7;1.6;;;;;;;22.71;57.66113;930.3369;;;;
2019/09/29 15:58:52;;;;;;;5.6;1.8;;;;;;;22.69;58.07129;930.241;;;;
2019/09/29 16:01:35;;;;;;;3.5;1.7;;;;;;;22.75;58.59473;930.2366;;;;
2019/09/29 16:04:00;;;;;;;4.5;1.8;;;;;;;22.78;58.31641;930.2399;;;;
2019/09/29 16:06:30;;;;;;;4.5;1.7;;;;;;;22.8;58.22656;930.2947;;;;
2019/09/29 16:09:05;;;;;;;6.7;1.7;;;;;;;22.82;57.4873;930.3374;;;;
2019/09/29 16:11:36;;;;;;;4.7;1.6;;;;;;;22.84;58.43066;930.3007;;;;
2019/09/29 16:13:59;;;;;;;4.4;1.7;;;;;;;22.72;58.23828;930.3663;;;;
2019/09/29 16:16:22;;;;;;;3.5;1.8;;;;;;;22.67;58.48926;930.3438;;;;
2019/09/29 16:18:59;;;;;;;4.7;2;;;;;;;22.56;59.13184;930.4153;;;;